Time,TemperatureF,DewpointF,PressureIn,WindDirection,WindDirectionDegrees,WindSpeedMPH,WindSpeedGustMPH,Humidity,HourlyPrecipIn,Conditions,Clouds,dailyrainin,SoftwareType,DateUTC
2013-08-19 00:02:00,69.1,53.2,29.83,SSE,167,0.0,0.0,57,0.00,,,0.00,meteohub,2013-08-19 07:02:00,
2013-08-19 00:07:00,69.1,53.2,29.83,SSE,167,0.0,0.0,57,0.00,,,0.00,meteohub,2013-08-19 07:07:00,
2013-08-19 00:12:00,69.1,53.6,29.83,SSE,167,0.0,0.0,58,0.00,,,0.00,meteohub,2013-08-19 07:12:00,
2013-08-19 00:17:00,68.9,53.1,29.83,SSE,167,0.0,0.0,57,0.00,,,0.00,meteohub,2013-08-19 07:17:00,
2013-08-19 00:22:00,68.7,53.4,29.83,SSE,167,0.0,0.0,58,0.00,,,0.00,meteohub,2013-08-19 07:22:00,
2013-08-19 00:27:00,68.7,53.4,29.83,SSE,167,0.0,0.0,58,0.00,,,0.00,meteohub,2013-08-19 07:27:00,
2013-08-19 00:32:00,68.7,53.4,29.83,SSE,167,0.0,0.0,58,0.00,,,0.00,meteohub,2013-08-19 07:32:00,
2013-08-19 00:37:00,68.7,53.8,29.83,SSE,167,0.0,0.0,59,0.00,,,0.00,meteohub,2013-08-19 07:37:00,
2013-08-19 00:42:00,68.7,53.4,29.83,SSE,167,0.0,0.0,58,0.00,,,0.00,meteohub,2013-08-19 07:42:00,
2013-08-19 00:47:00,68.7,53.4,29.83,SSE,167,0.0,0.0,58,0.00,,,0.00,meteohub,2013-08-19 07:47:00,
2013-08-19 00:57:00,68.5,53.2,29.83,SSE,167,0.0,0.0,58,0.00,,,0.00,meteohub,2013-08-19 07:57:00,
2013-08-19 01:02:00,68.5,53.2,29.83,SSE,167,0.0,0.0,58,0.00,,,0.00,meteohub,2013-08-19 08:02:00,
2013-08-19 01:07:00,68.7,53.4,29.83,SSE,167,0.0,0.0,58,0.00,,,0.00,meteohub,2013-08-19 08:07:00,
2013-08-19 01:12:00,68.7,53.4,29.82,SSE,167,0.0,0.0,58,0.00,,,0.00,meteohub,2013-08-19 08:12:00,
2013-08-19 01:17:00,68.9,53.6,29.82,SSE,167,0.0,0.0,58,0.00,,,0.00,meteohub,2013-08-19 08:17:00,
2013-08-19 01:22:00,69.1,53.2,29.82,SSE,167,0.0,0.0,57,0.00,,,0.00,meteohub,2013-08-19 08:22:00,
2013-08-19 01:27:00,69.3,52.9,29.82,SSE,167,0.0,0.0,56,0.00,,,0.00,meteohub,2013-08-19 08:27:00,
2013-08-19 01:32:00,69.6,53.2,29.82,SSE,167,0.0,0.0,56,0.00,,,0.00,meteohub,2013-08-19 08:32:00,
2013-08-19 01:37:00,70.0,53.1,29.82,SSE,167,0.0,0.0,55,0.00,,,0.00,meteohub,2013-08-19 08:37:00,
2013-08-19 01:42:00,70.2,52.7,29.82,SSE,167,0.0,0.0,54,0.00,,,0.00,meteohub,2013-08-19 08:42:00,
2013-08-19 01:47:00,70.3,52.3,29.81,SSE,167,0.0,0.0,53,0.00,,,0.00,meteohub,2013-08-19 08:47:00,
2013-08-19 01:52:00,70.5,52.0,29.82,SSE,167,0.0,0.0,52,0.00,,,0.00,meteohub,2013-08-19 08:52:00,
2013-08-19 01:57:00,70.5,52.5,29.82,NW,309,2.0,4.0,53,0.00,,,0.00,meteohub,2013-08-19 08:57:00,
2013-08-19 02:02:00,70.2,53.2,29.82,WSW,253,0.0,5.0,55,0.00,,,0.00,meteohub,2013-08-19 09:02:00,
2013-08-19 02:07:00,69.8,53.4,29.82,SW,221,0.0,5.0,56,0.00,,,0.00,meteohub,2013-08-19 09:07:00,
2013-08-19 02:12:00,69.3,53.4,29.82,SW,221,0.0,5.0,57,0.00,,,0.00,meteohub,2013-08-19 09:12:00,
2013-08-19 02:17:00,68.7,53.4,29.82,SW,221,0.0,0.0,58,0.00,,,0.00,meteohub,2013-08-19 09:17:00,
2013-08-19 02:22:00,68.4,53.4,29.82,SW,221,0.0,0.0,59,0.00,,,0.00,meteohub,2013-08-19 09:22:00,
2013-08-19 02:27:00,68.0,53.1,29.81,SW,221,0.0,0.0,59,0.00,,,0.00,meteohub,2013-08-19 09:27:00,
2013-08-19 02:32:00,67.6,53.2,29.81,SW,221,0.0,0.0,60,0.00,,,0.00,meteohub,2013-08-19 09:32:00,
2013-08-19 02:37:00,67.5,53.6,29.81,SW,221,0.0,0.0,61,0.00,,,0.00,meteohub,2013-08-19 09:37:00,
2013-08-19 02:42:00,67.3,53.4,29.81,SW,221,0.0,0.0,61,0.00,,,0.00,meteohub,2013-08-19 09:42:00,
2013-08-19 02:47:00,67.1,53.6,29.81,SW,221,0.0,0.0,62,0.00,,,0.00,meteohub,2013-08-19 09:47:00,
2013-08-19 02:52:00,67.1,53.6,29.81,SW,221,0.0,0.0,62,0.00,,,0.00,meteohub,2013-08-19 09:52:00,
2013-08-19 02:57:00,66.9,53.4,29.81,SW,221,0.0,0.0,62,0.00,,,0.00,meteohub,2013-08-19 09:57:00,
2013-08-19 03:02:00,66.9,53.4,29.81,SW,221,0.0,0.0,62,0.00,,,0.00,meteohub,2013-08-19 10:02:00,
2013-08-19 03:07:00,66.9,53.4,29.81,SW,221,0.0,0.0,62,0.00,,,0.00,meteohub,2013-08-19 10:07:00,
2013-08-19 03:12:00,67.1,53.6,29.81,SW,221,0.0,0.0,62,0.00,,,0.00,meteohub,2013-08-19 10:12:00,
2013-08-19 03:17:00,67.1,53.2,29.81,SW,219,0.0,0.0,61,0.00,,,0.00,meteohub,2013-08-19 10:17:00,
2013-08-19 03:22:00,67.5,53.6,29.81,SW,219,0.0,0.0,61,0.00,,,0.00,meteohub,2013-08-19 10:22:00,
2013-08-19 03:27:00,67.6,53.8,29.81,SW,219,0.0,0.0,61,0.00,,,0.00,meteohub,2013-08-19 10:27:00,
2013-08-19 03:32:00,67.8,53.4,29.81,SW,219,0.0,0.0,60,0.00,,,0.00,meteohub,2013-08-19 10:32:00,
2013-08-19 03:37:00,68.2,53.8,29.81,SW,219,0.0,0.0,60,0.00,,,0.00,meteohub,2013-08-19 10:37:00,
2013-08-19 03:42:00,68.4,53.4,29.81,SW,219,0.0,0.0,59,0.00,,,0.00,meteohub,2013-08-19 10:42:00,
2013-08-19 03:47:00,68.4,53.4,29.81,SW,219,0.0,0.0,59,0.00,,,0.00,meteohub,2013-08-19 10:47:00,
2013-08-19 03:52:00,68.5,53.6,29.81,South,172,0.0,0.0,59,0.00,,,0.00,meteohub,2013-08-19 10:52:00,
2013-08-19 03:57:00,68.7,53.4,29.81,South,172,0.0,0.0,58,0.00,,,0.00,meteohub,2013-08-19 10:57:00,
2013-08-19 04:02:00,68.7,53.8,29.81,South,172,0.0,0.0,59,0.00,,,0.00,meteohub,2013-08-19 11:02:00,
2013-08-19 04:07:00,68.7,53.8,29.81,South,172,0.0,0.0,59,0.00,,,0.00,meteohub,2013-08-19 11:07:00,
2013-08-19 04:12:00,68.7,53.8,29.81,South,172,0.0,0.0,59,0.00,,,0.00,meteohub,2013-08-19 11:12:00,
2013-08-19 04:17:00,68.4,53.4,29.81,South,173,0.0,0.0,59,0.00,,,0.00,meteohub,2013-08-19 11:17:00,
2013-08-19 04:22:00,68.2,53.8,29.81,South,173,0.0,0.0,60,0.00,,,0.00,meteohub,2013-08-19 11:22:00,
2013-08-19 04:27:00,68.2,53.8,29.81,South,174,0.0,0.0,60,0.00,,,0.00,meteohub,2013-08-19 11:27:00,
2013-08-19 04:32:00,68.2,53.8,29.81,South,174,0.0,0.0,60,0.00,,,0.00,meteohub,2013-08-19 11:32:00,
2013-08-19 04:37:00,68.2,53.8,29.81,South,174,0.0,0.0,60,0.00,,,0.00,meteohub,2013-08-19 11:37:00,
2013-08-19 04:42:00,68.0,53.6,29.81,South,174,0.0,0.0,60,0.00,,,0.00,meteohub,2013-08-19 11:42:00,
2013-08-19 04:47:00,68.2,54.1,29.82,SSE,153,0.0,0.0,61,0.00,,,0.00,meteohub,2013-08-19 11:47:00,
2013-08-19 04:52:00,67.6,55.4,29.84,South,172,6.0,6.0,65,0.00,,,0.00,meteohub,2013-08-19 11:52:00,
2013-08-19 04:57:00,64.9,54.9,29.84,ESE,111,4.0,14.0,70,0.05,,,0.05,meteohub,2013-08-19 11:57:00,
2013-08-19 05:02:00,62.2,54.9,29.81,ESE,115,5.0,18.0,77,0.12,,,0.12,meteohub,2013-08-19 12:02:00,
2013-08-19 05:07:00,61.3,54.5,29.82,ESE,110,0.0,18.0,78,0.12,,,0.12,meteohub,2013-08-19 12:07:00,
2013-08-19 05:12:00,61.0,54.5,29.82,SE,130,0.0,12.0,79,0.12,,,0.12,meteohub,2013-08-19 12:12:00,
2013-08-19 05:17:00,60.3,55.4,29.82,WSW,243,0.0,8.0,84,0.12,,,0.12,meteohub,2013-08-19 12:17:00,
2013-08-19 05:22:00,59.5,55.6,29.82,SSE,167,0.0,5.0,87,0.12,,,0.12,meteohub,2013-08-19 12:22:00,
2013-08-19 05:27:00,59.9,56.7,29.82,SSW,207,0.0,3.0,89,0.12,,,0.12,meteohub,2013-08-19 12:27:00,
2013-08-19 05:32:00,60.1,57.4,29.82,South,190,0.0,1.0,91,0.12,,,0.12,meteohub,2013-08-19 12:32:00,
2013-08-19 05:37:00,60.1,57.4,29.82,SSW,193,0.0,0.0,91,0.12,,,0.12,meteohub,2013-08-19 12:37:00,
2013-08-19 05:42:00,59.9,57.6,29.82,WSW,240,0.0,0.0,92,0.12,,,0.12,meteohub,2013-08-19 12:42:00,
2013-08-19 05:47:00,59.7,57.7,29.82,WSW,245,0.0,0.0,93,0.12,,,0.12,meteohub,2013-08-19 12:47:00,
2013-08-19 05:52:00,59.7,57.7,29.82,WSW,243,0.0,0.0,93,0.12,,,0.12,meteohub,2013-08-19 12:52:00,
2013-08-19 05:57:00,59.9,58.1,29.83,SW,224,0.0,0.0,94,0.04,,,0.12,meteohub,2013-08-19 12:57:00,
2013-08-19 06:02:00,60.1,58.3,29.83,SW,225,0.0,0.0,94,0.00,,,0.12,meteohub,2013-08-19 13:02:00,
2013-08-19 06:22:00,60.3,58.5,29.86,North,-999,-999.0,0.0,94,0.00,,,0.12,meteohub,2013-08-19 13:22:00,
2013-08-19 06:27:00,60.1,58.3,29.85,WSW,243,0.0,-999.0,94,0.00,,,0.12,meteohub,2013-08-19 13:27:00,
2013-08-19 06:32:00,59.9,58.1,29.85,WSW,238,0.0,0.0,94,0.00,,,0.12,meteohub,2013-08-19 13:32:00,
2013-08-19 06:37:00,59.5,57.6,29.85,WSW,239,0.0,0.0,93,0.00,,,0.12,meteohub,2013-08-19 13:37:00,
2013-08-19 06:42:00,59.7,57.9,29.85,WSW,239,0.0,0.0,94,0.00,,,0.12,meteohub,2013-08-19 13:42:00,
2013-08-19 06:47:00,59.7,57.9,29.85,SW,236,0.0,0.0,94,0.00,,,0.12,meteohub,2013-08-19 13:47:00,
2013-08-19 06:52:00,60.1,58.3,29.86,WSW,237,0.0,0.0,94,0.00,,,0.12,meteohub,2013-08-19 13:52:00,
2013-08-19 06:57:00,60.1,58.3,29.86,WSW,238,0.0,0.0,94,0.00,,,0.12,meteohub,2013-08-19 13:57:00,
2013-08-19 07:02:00,60.3,58.5,29.86,SW,236,0.0,0.0,94,0.00,,,0.12,meteohub,2013-08-19 14:02:00,
2013-08-19 07:07:00,60.6,59.2,29.86,SW,236,0.0,0.0,95,0.00,,,0.12,meteohub,2013-08-19 14:07:00,
2013-08-19 07:12:00,61.2,59.7,29.86,SW,235,0.0,0.0,95,0.00,,,0.12,meteohub,2013-08-19 14:12:00,
2013-08-19 07:17:00,61.5,59.7,29.86,SW,235,0.0,0.0,94,0.00,,,0.12,meteohub,2013-08-19 14:17:00,
2013-08-19 07:22:00,61.5,58.8,29.86,SW,236,0.0,0.0,91,0.00,,,0.12,meteohub,2013-08-19 14:22:00,
2013-08-19 07:27:00,62.2,60.3,29.86,SW,235,0.0,0.0,93,0.00,,,0.12,meteohub,2013-08-19 14:27:00,
2013-08-19 07:32:00,63.0,61.0,29.86,SW,235,0.0,0.0,93,0.00,,,0.12,meteohub,2013-08-19 14:32:00,
2013-08-19 07:37:00,63.3,61.3,29.86,SW,235,0.0,0.0,93,0.00,,,0.12,meteohub,2013-08-19 14:37:00,
2013-08-19 07:42:00,63.5,60.8,29.86,SW,218,0.0,0.0,91,0.00,,,0.12,meteohub,2013-08-19 14:42:00,
2013-08-19 07:47:00,64.0,61.3,29.86,SW,217,0.0,0.0,91,0.00,,,0.12,meteohub,2013-08-19 14:47:00,
2013-08-19 07:52:00,64.2,59.5,29.86,ESE,120,0.0,0.0,85,0.00,,,0.12,meteohub,2013-08-19 14:52:00,
2013-08-19 07:57:00,64.6,61.5,29.86,ESE,120,0.0,0.0,90,0.00,,,0.12,meteohub,2013-08-19 14:57:00,
2013-08-19 08:02:00,64.2,60.6,29.86,SE,135,0.0,0.0,88,0.00,,,0.12,meteohub,2013-08-19 15:02:00,
2013-08-19 08:12:00,63.3,59.0,29.86,South,177,0.0,0.0,86,0.00,,,0.12,meteohub,2013-08-19 15:12:00,
2013-08-19 08:17:00,64.0,58.5,29.86,South,177,0.0,0.0,82,0.00,,,0.12,meteohub,2013-08-19 15:17:00,
2013-08-19 08:22:00,65.1,57.4,29.86,South,177,0.0,0.0,76,0.00,,,0.12,meteohub,2013-08-19 15:22:00,
2013-08-19 08:27:00,66.2,58.1,29.86,South,177,0.0,0.0,75,0.00,,,0.12,meteohub,2013-08-19 15:27:00,
2013-08-19 08:32:00,66.7,57.4,29.86,South,177,0.0,0.0,72,0.00,,,0.12,meteohub,2013-08-19 15:32:00,
2013-08-19 08:37:00,66.9,57.6,29.86,South,177,0.0,0.0,72,0.00,,,0.12,meteohub,2013-08-19 15:37:00,
2013-08-19 08:42:00,66.9,56.5,29.86,South,181,0.0,0.0,69,0.00,,,0.12,meteohub,2013-08-19 15:42:00,
2013-08-19 08:47:00,67.3,58.3,29.86,South,181,0.0,0.0,73,0.00,,,0.12,meteohub,2013-08-19 15:47:00,
2013-08-19 08:52:00,68.2,58.1,29.86,South,181,0.0,0.0,70,0.00,,,0.12,meteohub,2013-08-19 15:52:00,
2013-08-19 08:57:00,69.3,60.3,29.86,South,181,0.0,0.0,73,0.00,,,0.12,meteohub,2013-08-19 15:57:00,
2013-08-19 09:02:00,69.3,60.3,29.86,South,184,0.0,0.0,73,0.00,,,0.12,meteohub,2013-08-19 16:02:00,
2013-08-19 09:07:00,69.1,60.1,29.86,South,185,0.0,0.0,73,0.00,,,0.12,meteohub,2013-08-19 16:07:00,
2013-08-19 09:12:00,69.1,60.1,29.86,South,183,0.0,0.0,73,0.00,,,0.12,meteohub,2013-08-19 16:12:00,
2013-08-19 09:17:00,69.4,60.8,29.86,South,183,0.0,0.0,74,0.00,,,0.12,meteohub,2013-08-19 16:17:00,
2013-08-19 09:22:00,70.0,63.1,29.86,South,182,0.0,0.0,79,0.00,,,0.12,meteohub,2013-08-19 16:22:00,
2013-08-19 09:32:00,72.7,66.2,29.86,South,183,0.0,0.0,80,0.00,,,0.12,meteohub,2013-08-19 16:32:00,
2013-08-19 09:37:00,74.3,64.2,29.86,SE,127,0.0,0.0,71,0.00,,,0.12,meteohub,2013-08-19 16:37:00,
2013-08-19 09:42:00,75.4,64.9,29.86,SE,127,0.0,0.0,70,0.00,,,0.12,meteohub,2013-08-19 16:42:00,
2013-08-19 09:47:00,76.3,64.9,29.86,ESE,103,0.0,0.0,68,0.00,,,0.12,meteohub,2013-08-19 16:47:00,
2013-08-19 09:52:00,76.3,66.9,29.86,ESE,117,0.0,0.0,73,0.00,,,0.12,meteohub,2013-08-19 16:52:00,
2013-08-19 09:57:00,76.1,63.9,29.86,ENE,63,0.0,0.0,66,0.00,,,0.12,meteohub,2013-08-19 16:57:00,
2013-08-19 10:02:00,76.3,66.2,29.86,ESE,103,0.0,0.0,71,0.00,,,0.12,meteohub,2013-08-19 17:02:00,
2013-08-19 10:07:00,77.0,64.8,29.85,ESE,107,0.0,0.0,66,0.00,,,0.12,meteohub,2013-08-19 17:07:00,
2013-08-19 10:12:00,77.2,60.3,29.85,NNE,15,1.0,0.0,56,0.00,,,0.12,meteohub,2013-08-19 17:12:00,
2013-08-19 10:22:00,78.1,59.0,29.86,East,93,5.0,6.0,52,0.00,,,0.12,meteohub,2013-08-19 17:22:00,
2013-08-19 10:27:00,78.1,55.0,29.86,WSW,246,0.0,10.0,45,0.00,,,0.12,meteohub,2013-08-19 17:27:00,
2013-08-19 10:32:00,78.8,59.7,29.86,ESE,111,4.0,10.0,52,0.00,,,0.12,meteohub,2013-08-19 17:32:00,
2013-08-19 10:37:00,79.0,57.6,29.86,East,92,3.0,10.0,48,0.00,,,0.12,meteohub,2013-08-19 17:37:00,
2013-08-19 10:42:00,78.8,56.3,29.86,ENE,72,3.0,6.0,46,0.00,,,0.12,meteohub,2013-08-19 17:42:00,
2013-08-19 10:47:00,78.6,57.2,29.86,NE,44,0.0,6.0,48,0.00,,,0.12,meteohub,2013-08-19 17:47:00,
2013-08-19 10:52:00,79.5,59.7,29.86,ESE,113,4.0,5.0,51,0.00,,,0.12,meteohub,2013-08-19 17:52:00,
2013-08-19 10:57:00,78.6,56.1,29.87,East,101,2.0,5.0,46,0.00,,,0.12,meteohub,2013-08-19 17:57:00,
2013-08-19 11:02:00,77.5,55.8,29.87,ESE,110,0.0,5.0,47,0.00,,,0.12,meteohub,2013-08-19 18:02:00,
2013-08-19 11:07:00,77.5,56.3,29.87,SW,219,1.0,5.0,48,0.00,,,0.12,meteohub,2013-08-19 18:07:00,
2013-08-19 11:12:00,78.3,56.3,29.87,ENE,74,0.0,5.0,47,0.00,,,0.12,meteohub,2013-08-19 18:12:00,
2013-08-19 11:17:00,79.5,56.3,29.87,ESE,114,0.0,4.0,45,0.00,,,0.12,meteohub,2013-08-19 18:17:00,
2013-08-19 11:22:00,80.1,56.8,29.87,ESE,108,2.0,3.0,45,0.00,,,0.12,meteohub,2013-08-19 18:22:00,
2013-08-19 11:27:00,80.2,55.8,29.87,ESE,114,2.0,6.0,43,0.00,,,0.12,meteohub,2013-08-19 18:27:00,
2013-08-19 11:32:00,80.1,56.1,29.87,East,88,2.0,6.0,44,0.00,,,0.12,meteohub,2013-08-19 18:32:00,
2013-08-19 11:37:00,80.2,57.0,29.87,SE,132,1.0,4.0,45,0.00,,,0.12,meteohub,2013-08-19 18:37:00,
2013-08-19 11:42:00,79.3,56.1,29.87,SE,146,3.0,7.0,45,0.01,,,0.13,meteohub,2013-08-19 18:42:00,
2013-08-19 11:47:00,79.5,56.3,29.87,ESE,108,2.0,7.0,45,0.01,,,0.13,meteohub,2013-08-19 18:47:00,
2013-08-19 11:52:00,79.7,56.5,29.87,East,93,3.0,7.0,45,0.01,,,0.13,meteohub,2013-08-19 18:52:00,
2013-08-19 11:57:00,79.2,55.9,29.88,East,82,6.0,7.0,45,0.01,,,0.13,meteohub,2013-08-19 18:57:00,
2013-08-19 12:02:00,79.2,56.7,29.87,East,91,3.0,6.0,46,0.01,,,0.13,meteohub,2013-08-19 19:02:00,
2013-08-19 12:07:00,80.1,57.4,29.87,ENE,68,2.0,6.0,46,0.01,,,0.13,meteohub,2013-08-19 19:07:00,
2013-08-19 12:12:00,80.4,57.7,29.87,East,88,0.0,8.0,46,0.01,,,0.13,meteohub,2013-08-19 19:12:00,
2013-08-19 12:17:00,80.6,57.4,29.87,SE,135,2.0,8.0,45,0.01,,,0.13,meteohub,2013-08-19 19:17:00,
2013-08-19 12:22:00,80.8,58.6,29.87,SE,124,1.0,6.0,47,0.01,,,0.13,meteohub,2013-08-19 19:22:00,
2013-08-19 12:27:00,80.8,58.1,29.87,SSE,166,2.0,6.0,46,0.01,,,0.13,meteohub,2013-08-19 19:27:00,
2013-08-19 12:32:00,81.9,58.5,29.87,ENE,58,3.0,7.0,45,0.01,,,0.13,meteohub,2013-08-19 19:32:00,
2013-08-19 12:37:00,82.0,55.9,29.87,SW,215,3.0,7.0,41,0.01,,,0.13,meteohub,2013-08-19 19:37:00,
2013-08-19 12:42:00,81.9,56.5,29.87,East,90,0.0,6.0,42,0.00,,,0.13,meteohub,2013-08-19 19:42:00,
2013-08-19 12:47:00,81.1,54.5,29.87,ESE,112,1.0,9.0,40,0.00,,,0.13,meteohub,2013-08-19 19:47:00,
2013-08-19 12:52:00,80.8,55.6,29.87,West,265,0.0,9.0,42,0.00,,,0.13,meteohub,2013-08-19 19:52:00,
2013-08-19 13:02:00,79.3,56.1,29.87,WSW,239,1.0,8.0,45,0.00,,,0.13,meteohub,2013-08-19 20:02:00,
2013-08-19 13:07:00,79.3,55.6,29.87,SSW,195,1.0,6.0,44,0.00,,,0.13,meteohub,2013-08-19 20:07:00,
2013-08-19 13:12:00,80.4,57.7,29.87,NE,45,3.0,6.0,46,0.00,,,0.13,meteohub,2013-08-19 20:12:00,
2013-08-19 13:17:00,82.0,56.7,29.87,East,94,6.0,6.0,42,0.00,,,0.13,meteohub,2013-08-19 20:17:00,
2013-08-19 13:22:00,81.9,55.2,29.87,WSW,243,3.0,6.0,40,0.00,,,0.13,meteohub,2013-08-19 20:22:00,
2013-08-19 13:27:00,82.2,56.1,29.86,SSW,193,5.0,7.0,41,0.00,,,0.13,meteohub,2013-08-19 20:27:00,
2013-08-19 13:32:00,81.1,55.2,29.87,SSE,150,3.0,7.0,41,0.00,,,0.13,meteohub,2013-08-19 20:32:00,
2013-08-19 13:37:00,81.0,56.3,29.86,ESE,119,1.0,9.0,43,0.00,,,0.13,meteohub,2013-08-19 20:37:00,
2013-08-19 13:42:00,80.8,55.6,29.86,East,86,2.0,9.0,42,0.00,,,0.13,meteohub,2013-08-19 20:42:00,
2013-08-19 13:47:00,80.8,56.8,29.86,ENE,61,4.0,9.0,44,0.00,,,0.13,meteohub,2013-08-19 20:47:00,
2013-08-19 13:52:00,81.1,56.5,29.86,SE,124,5.0,8.0,43,0.00,,,0.13,meteohub,2013-08-19 20:52:00,
2013-08-19 14:02:00,81.3,56.7,29.87,SE,127,5.0,8.0,43,0.00,,,0.13,meteohub,2013-08-19 21:02:00,
2013-08-19 14:07:00,81.7,57.0,29.86,East,94,1.0,9.0,43,0.00,,,0.13,meteohub,2013-08-19 21:07:00,
2013-08-19 14:12:00,81.7,57.0,29.87,WSW,252,3.0,9.0,43,0.00,,,0.13,meteohub,2013-08-19 21:12:00,
2013-08-19 14:17:00,80.8,56.1,29.87,SE,143,2.0,9.0,43,0.00,,,0.13,meteohub,2013-08-19 21:17:00,
2013-08-19 14:22:00,79.9,55.9,29.87,SE,131,3.0,8.0,44,0.00,,,0.13,meteohub,2013-08-19 21:22:00,
2013-08-19 14:27:00,79.2,55.9,29.87,East,83,2.0,8.0,45,0.00,,,0.13,meteohub,2013-08-19 21:27:00,
2013-08-19 14:32:00,79.0,56.5,29.86,South,170,1.0,7.0,46,0.00,,,0.13,meteohub,2013-08-19 21:32:00,
2013-08-19 14:37:00,78.6,56.1,29.86,ENE,76,5.0,7.0,46,0.00,,,0.13,meteohub,2013-08-19 21:37:00,
2013-08-19 14:42:00,77.5,56.3,29.86,SSE,156,2.0,6.0,48,0.00,,,0.13,meteohub,2013-08-19 21:42:00,
2013-08-19 14:47:00,77.0,57.0,29.86,SSE,156,3.0,9.0,50,0.00,,,0.13,meteohub,2013-08-19 21:47:00,
2013-08-19 14:52:00,76.6,57.2,29.86,SE,134,1.0,9.0,51,0.00,,,0.13,meteohub,2013-08-19 21:52:00,
2013-08-19 14:57:00,76.3,56.3,29.86,SSE,147,0.0,9.0,50,0.00,,,0.13,meteohub,2013-08-19 21:57:00,
2013-08-19 15:02:00,76.3,56.8,29.86,SW,230,1.0,8.0,51,0.00,,,0.13,meteohub,2013-08-19 22:02:00,
2013-08-19 15:07:00,76.5,57.0,29.86,WSW,248,2.0,8.0,51,0.00,,,0.13,meteohub,2013-08-19 22:07:00,
2013-08-19 15:12:00,76.5,57.0,29.86,SE,141,2.0,7.0,51,0.00,,,0.13,meteohub,2013-08-19 22:12:00,
2013-08-19 15:17:00,76.5,57.6,29.86,SSE,151,3.0,7.0,52,0.00,,,0.13,meteohub,2013-08-19 22:17:00,
2013-08-19 15:22:00,76.6,56.7,29.85,ESE,121,4.0,8.0,50,0.00,,,0.13,meteohub,2013-08-19 22:22:00,
2013-08-19 15:27:00,76.6,57.2,29.85,ESE,111,8.0,8.0,51,0.00,,,0.13,meteohub,2013-08-19 22:27:00,
2013-08-19 15:32:00,76.6,57.2,29.85,SSW,208,2.0,10.0,51,0.00,,,0.13,meteohub,2013-08-19 22:32:00,
2013-08-19 15:37:00,76.5,57.0,29.85,East,93,7.0,10.0,51,0.00,,,0.13,meteohub,2013-08-19 22:37:00,
2013-08-19 15:42:00,76.1,57.2,29.85,SSE,160,1.0,10.0,52,0.00,,,0.13,meteohub,2013-08-19 22:42:00,
2013-08-19 15:47:00,76.5,57.0,29.85,SE,135,1.0,8.0,51,0.00,,,0.13,meteohub,2013-08-19 22:47:00,
2013-08-19 15:52:00,76.3,56.8,29.84,SSW,207,0.0,7.0,51,0.00,,,0.13,meteohub,2013-08-19 22:52:00,
2013-08-19 15:57:00,76.1,57.2,29.84,North,354,1.0,7.0,52,0.00,,,0.13,meteohub,2013-08-19 22:57:00,
2013-08-19 16:02:00,75.9,57.0,29.84,SSW,205,4.0,7.0,52,0.00,,,0.13,meteohub,2013-08-19 23:02:00,
2013-08-19 16:07:00,75.7,56.8,29.84,SE,124,1.0,8.0,52,0.00,,,0.13,meteohub,2013-08-19 23:07:00,
2013-08-19 16:12:00,75.6,56.7,29.84,ENE,66,4.0,8.0,52,0.00,,,0.13,meteohub,2013-08-19 23:12:00,
2013-08-19 16:17:00,75.6,56.7,29.84,West,271,1.0,9.0,52,0.00,,,0.13,meteohub,2013-08-19 23:17:00,
2013-08-19 16:22:00,75.4,57.0,29.84,ESE,107,2.0,10.0,53,0.00,,,0.13,meteohub,2013-08-19 23:22:00,
2013-08-19 16:27:00,75.2,55.8,29.84,SSE,158,3.0,10.0,51,0.00,,,0.13,meteohub,2013-08-19 23:27:00,
2013-08-19 16:32:00,75.6,57.2,29.84,WSW,253,1.0,10.0,53,0.00,,,0.13,meteohub,2013-08-19 23:32:00,
2013-08-19 16:37:00,76.3,56.8,29.84,ESE,120,8.0,9.0,51,0.00,,,0.13,meteohub,2013-08-19 23:37:00,
2013-08-19 16:42:00,76.5,57.0,29.83,SSW,195,6.0,9.0,51,0.00,,,0.13,meteohub,2013-08-19 23:42:00,
2013-08-19 16:47:00,76.6,56.7,29.83,SE,124,3.0,8.0,50,0.00,,,0.13,meteohub,2013-08-19 23:47:00,
2013-08-19 16:52:00,76.8,56.8,29.83,SE,143,3.0,9.0,50,0.00,,,0.13,meteohub,2013-08-19 23:52:00,
2013-08-19 16:57:00,77.2,55.9,29.83,SSW,204,2.0,9.0,48,0.00,,,0.13,meteohub,2013-08-19 23:57:00,
2013-08-19 17:02:00,77.2,55.4,29.83,East,101,5.0,9.0,47,0.00,,,0.13,meteohub,2013-08-20 00:02:00,
2013-08-19 17:07:00,77.0,55.8,29.83,SSE,160,7.0,9.0,48,0.00,,,0.13,meteohub,2013-08-20 00:07:00,
2013-08-19 17:12:00,76.8,55.6,29.83,ESE,112,6.0,11.0,48,0.00,,,0.13,meteohub,2013-08-20 00:12:00,
2013-08-19 17:17:00,76.8,55.6,29.83,SE,131,1.0,11.0,48,0.00,,,0.13,meteohub,2013-08-20 00:17:00,
2013-08-19 17:22:00,77.2,56.5,29.83,SSE,163,1.0,11.0,49,0.00,,,0.13,meteohub,2013-08-20 00:22:00,
2013-08-19 17:27:00,77.0,55.8,29.83,WSW,246,2.0,9.0,48,0.00,,,0.13,meteohub,2013-08-20 00:27:00,
2013-08-19 17:32:00,76.6,56.1,29.83,ESE,121,1.0,7.0,49,0.00,,,0.13,meteohub,2013-08-20 00:32:00,
2013-08-19 17:37:00,76.6,56.1,29.83,ESE,107,1.0,7.0,49,0.00,,,0.13,meteohub,2013-08-20 00:37:00,
2013-08-19 17:42:00,76.5,55.9,29.83,SE,134,6.0,7.0,49,0.00,,,0.13,meteohub,2013-08-20 00:42:00,
2013-08-19 17:47:00,76.1,55.6,29.83,SE,146,1.0,8.0,49,0.00,,,0.13,meteohub,2013-08-20 00:47:00,
2013-08-19 17:52:00,75.7,55.8,29.83,ENE,70,2.0,8.0,50,0.00,,,0.13,meteohub,2013-08-20 00:52:00,
2013-08-19 17:57:00,75.4,55.9,29.83,SSW,203,2.0,8.0,51,0.00,,,0.13,meteohub,2013-08-20 00:57:00,
2013-08-19 18:02:00,75.2,55.8,29.82,ESE,112,3.0,6.0,51,0.00,,,0.13,meteohub,2013-08-20 01:02:00,
2013-08-19 18:07:00,74.8,56.1,29.83,ENE,74,4.0,6.0,52,0.00,,,0.13,meteohub,2013-08-20 01:07:00,
2013-08-19 18:12:00,74.7,56.5,29.82,South,170,0.0,7.0,53,0.00,,,0.13,meteohub,2013-08-20 01:12:00,
2013-08-19 18:17:00,74.5,56.3,29.82,South,172,6.0,7.0,53,0.00,,,0.13,meteohub,2013-08-20 01:17:00,
2013-08-19 18:22:00,74.1,55.9,29.82,East,79,4.0,10.0,53,0.00,,,0.13,meteohub,2013-08-20 01:22:00,
2013-08-19 18:27:00,73.8,56.1,29.82,ESE,121,2.0,10.0,54,0.00,,,0.13,meteohub,2013-08-20 01:27:00,
2013-08-19 18:32:00,73.4,56.3,29.82,ENE,71,2.0,10.0,55,0.00,,,0.13,meteohub,2013-08-20 01:32:00,
2013-08-19 18:37:00,73.0,56.5,29.82,SE,141,3.0,7.0,56,0.00,,,0.13,meteohub,2013-08-20 01:37:00,
2013-08-19 18:42:00,72.7,56.5,29.82,ESE,117,6.0,8.0,57,0.00,,,0.13,meteohub,2013-08-20 01:42:00,
2013-08-19 18:47:00,72.3,56.7,29.82,SE,127,2.0,9.0,58,0.00,,,0.13,meteohub,2013-08-20 01:47:00,
2013-08-19 18:52:00,72.1,57.0,29.82,ESE,114,3.0,10.0,59,0.00,,,0.13,meteohub,2013-08-20 01:52:00,
2013-08-19 18:57:00,71.8,57.2,29.82,SSE,158,6.0,10.0,60,0.00,,,0.13,meteohub,2013-08-20 01:57:00,
2013-08-19 19:02:00,71.4,56.8,29.81,SSE,163,2.0,9.0,60,0.00,,,0.13,meteohub,2013-08-20 02:02:00,
2013-08-19 19:07:00,71.2,57.0,29.82,SE,131,3.0,11.0,61,0.00,,,0.13,meteohub,2013-08-20 02:07:00,
2013-08-19 19:12:00,71.1,57.4,29.82,SE,135,4.0,11.0,62,0.00,,,0.13,meteohub,2013-08-20 02:12:00,
2013-08-19 19:17:00,70.7,57.0,29.82,SE,143,5.0,11.0,62,0.00,,,0.13,meteohub,2013-08-20 02:17:00,
2013-08-19 19:22:00,70.3,56.7,29.82,SW,231,5.0,11.0,62,0.00,,,0.13,meteohub,2013-08-20 02:22:00,
2013-08-19 19:27:00,70.2,56.5,29.82,SE,139,1.0,11.0,62,0.00,,,0.13,meteohub,2013-08-20 02:27:00,
2013-08-19 19:32:00,70.2,56.5,29.83,SW,222,2.0,10.0,62,0.00,,,0.13,meteohub,2013-08-20 02:32:00,
2013-08-19 19:37:00,70.2,56.5,29.83,SSW,210,1.0,10.0,62,0.00,,,0.13,meteohub,2013-08-20 02:37:00,
2013-08-19 19:42:00,70.2,55.6,29.83,SE,138,2.0,10.0,60,0.00,,,0.13,meteohub,2013-08-20 02:42:00,
2013-08-19 19:47:00,70.3,56.3,29.83,SE,138,0.0,7.0,61,0.00,,,0.13,meteohub,2013-08-20 02:47:00,
2013-08-19 19:52:00,70.2,55.6,29.84,SW,231,0.0,5.0,60,0.00,,,0.13,meteohub,2013-08-20 02:52:00,
2013-08-19 19:57:00,69.6,55.6,29.84,WSW,238,0.0,4.0,61,0.00,,,0.13,meteohub,2013-08-20 02:57:00,
2013-08-19 20:02:00,69.3,55.8,29.84,WSW,239,0.0,1.0,62,0.00,,,0.13,meteohub,2013-08-20 03:02:00,
2013-08-19 20:07:00,68.7,55.6,29.84,SSE,159,0.0,0.0,63,0.00,,,0.13,meteohub,2013-08-20 03:07:00,
2013-08-19 20:12:00,68.4,56.1,29.85,SSE,160,0.0,0.0,65,0.00,,,0.13,meteohub,2013-08-20 03:12:00,
2013-08-19 20:17:00,68.2,56.3,29.85,SSE,160,0.0,0.0,66,0.00,,,0.13,meteohub,2013-08-20 03:17:00,
2013-08-19 20:22:00,67.8,56.1,29.85,SSE,160,0.0,0.0,66,0.00,,,0.13,meteohub,2013-08-20 03:22:00,
2013-08-19 20:27:00,67.8,56.1,29.85,SSE,155,0.0,0.0,66,0.00,,,0.13,meteohub,2013-08-20 03:27:00,
2013-08-19 20:32:00,67.8,55.2,29.86,South,169,0.0,0.0,64,0.00,,,0.13,meteohub,2013-08-20 03:32:00,
2013-08-19 20:37:00,67.8,54.7,29.86,South,173,0.0,0.0,63,0.00,,,0.13,meteohub,2013-08-20 03:37:00,
2013-08-19 20:42:00,68.2,54.7,29.86,South,186,0.0,3.0,62,0.00,,,0.13,meteohub,2013-08-20 03:42:00,
2013-08-19 20:47:00,68.4,54.9,29.86,South,174,1.0,3.0,62,0.00,,,0.13,meteohub,2013-08-20 03:47:00,
2013-08-19 20:52:00,68.4,54.3,29.86,South,181,1.0,3.0,61,0.00,,,0.13,meteohub,2013-08-20 03:52:00,
2013-08-19 20:57:00,68.4,54.0,29.86,SSW,208,0.0,2.0,60,0.00,,,0.13,meteohub,2013-08-20 03:57:00,
2013-08-19 21:02:00,68.4,54.0,29.86,SSW,203,1.0,2.0,60,0.00,,,0.13,meteohub,2013-08-20 04:02:00,
2013-08-19 21:07:00,68.4,54.0,29.86,SSE,163,1.0,3.0,60,0.00,,,0.13,meteohub,2013-08-20 04:07:00,
2013-08-19 21:12:00,68.5,54.1,29.86,SSW,211,4.0,5.0,60,0.00,,,0.13,meteohub,2013-08-20 04:12:00,
2013-08-19 21:17:00,68.7,53.8,29.86,South,174,5.0,6.0,59,0.00,,,0.13,meteohub,2013-08-20 04:17:00,
2013-08-19 21:22:00,69.1,53.6,29.86,SW,214,5.0,6.0,58,0.00,,,0.13,meteohub,2013-08-20 04:22:00,
2013-08-19 21:27:00,69.4,54.0,29.86,South,173,1.0,8.0,58,0.00,,,0.13,meteohub,2013-08-20 04:27:00,
2013-08-19 21:32:00,69.6,54.1,29.86,SSW,200,2.0,8.0,58,0.00,,,0.13,meteohub,2013-08-20 04:32:00,
2013-08-19 21:37:00,69.6,54.1,29.86,SSE,158,4.0,8.0,58,0.00,,,0.13,meteohub,2013-08-20 04:37:00,
2013-08-19 21:42:00,70.0,54.5,29.87,ESE,110,0.0,6.0,58,0.00,,,0.13,meteohub,2013-08-20 04:42:00,
2013-08-19 21:47:00,69.8,54.0,29.86,SE,134,1.0,6.0,57,0.00,,,0.13,meteohub,2013-08-20 04:47:00,
2013-08-19 21:52:00,70.0,54.0,29.87,South,186,1.0,6.0,57,0.00,,,0.13,meteohub,2013-08-20 04:52:00,
2013-08-19 21:57:00,70.0,54.0,29.86,South,172,2.0,4.0,57,0.00,,,0.13,meteohub,2013-08-20 04:57:00,
2013-08-19 22:02:00,70.0,54.0,29.86,SW,225,0.0,4.0,57,0.00,,,0.13,meteohub,2013-08-20 05:02:00,
2013-08-19 22:07:00,70.0,54.0,29.86,South,180,0.0,4.0,57,0.00,,,0.13,meteohub,2013-08-20 05:07:00,
2013-08-19 22:12:00,70.0,54.0,29.86,SSW,207,3.0,4.0,57,0.00,,,0.13,meteohub,2013-08-20 05:12:00,
2013-08-19 22:17:00,70.0,53.6,29.86,South,177,1.0,4.0,56,0.00,,,0.13,meteohub,2013-08-20 05:17:00,
2013-08-19 22:22:00,70.2,53.8,29.86,ESE,121,1.0,4.0,56,0.00,,,0.13,meteohub,2013-08-20 05:22:00,
2013-08-19 22:27:00,70.0,53.1,29.86,West,269,1.0,5.0,55,0.00,,,0.13,meteohub,2013-08-20 05:27:00,
2013-08-19 22:32:00,70.0,53.6,29.86,SE,128,1.0,5.0,56,0.00,,,0.13,meteohub,2013-08-20 05:32:00,
2013-08-19 22:37:00,70.2,53.2,29.86,WSW,249,1.0,5.0,55,0.00,,,0.13,meteohub,2013-08-20 05:37:00,
2013-08-19 22:42:00,70.0,53.6,29.86,WSW,253,0.0,4.0,56,0.00,,,0.13,meteohub,2013-08-20 05:42:00,
2013-08-19 22:47:00,69.8,52.9,29.86,SE,138,0.0,4.0,55,0.00,,,0.13,meteohub,2013-08-20 05:47:00,
2013-08-19 22:52:00,69.6,52.7,29.86,ESE,113,2.0,4.0,55,0.00,,,0.13,meteohub,2013-08-20 05:52:00,
2013-08-19 22:57:00,69.8,52.9,29.86,SSW,201,2.0,5.0,55,0.00,,,0.13,meteohub,2013-08-20 05:57:00,
2013-08-19 23:02:00,70.0,53.1,29.86,SE,141,1.0,5.0,55,0.00,,,0.13,meteohub,2013-08-20 06:02:00,
2013-08-19 23:07:00,70.2,52.7,29.86,SE,134,1.0,5.0,54,0.00,,,0.13,meteohub,2013-08-20 06:07:00,
2013-08-19 23:12:00,70.2,52.7,29.86,South,184,3.0,5.0,54,0.00,,,0.13,meteohub,2013-08-20 06:12:00,
2013-08-19 23:17:00,70.2,52.7,29.86,South,174,2.0,5.0,54,0.00,,,0.13,meteohub,2013-08-20 06:17:00,
2013-08-19 23:22:00,70.3,53.4,29.86,SSW,210,2.0,5.0,55,0.00,,,0.13,meteohub,2013-08-20 06:22:00,
2013-08-19 23:27:00,70.3,53.4,29.86,SSW,200,1.0,5.0,55,0.00,,,0.13,meteohub,2013-08-20 06:27:00,
2013-08-19 23:32:00,70.2,53.2,29.86,SSW,212,0.0,4.0,55,0.00,,,0.13,meteohub,2013-08-20 06:32:00,
2013-08-19 23:37:00,70.2,53.2,29.86,SW,226,0.0,4.0,55,0.00,,,0.13,meteohub,2013-08-20 06:37:00,
2013-08-19 23:42:00,70.2,52.7,29.86,SW,236,0.0,4.0,54,0.00,,,0.13,meteohub,2013-08-20 06:42:00,
2013-08-19 23:47:00,70.2,52.2,29.86,West,260,1.0,6.0,53,0.00,,,0.13,meteohub,2013-08-20 06:47:00,
2013-08-19 23:52:00,70.3,51.8,29.86,SSW,207,2.0,6.0,52,0.00,,,0.13,meteohub,2013-08-20 06:52:00,
2013-08-19 23:57:00,70.5,52.0,29.86,SSE,165,1.0,6.0,52,0.00,,,0.13,meteohub,2013-08-20 06:57:00,